createdAt,value
2018-02-08T00:01:27.795Z,101443.94
2018-02-08T00:03:55.403Z,101440.56
2018-02-08T00:06:22.992Z,101440.56
2018-02-08T00:08:50.693Z,101437.97
2018-02-08T00:11:18.279Z,101442.64
2018-02-08T00:13:45.878Z,101443.11
2018-02-08T00:16:13.455Z,101443.98
2018-02-08T00:18:41.070Z,101443.95
2018-02-08T00:21:08.658Z,101446.49
2018-02-08T00:23:36.245Z,101441.84
2018-02-08T00:26:04.609Z,101449.52
2018-02-08T00:28:32.186Z,101455.89
2018-02-08T00:30:59.770Z,101460.57
2018-02-08T00:33:27.359Z,101457.16
2018-02-08T00:35:55.031Z,101457.98
2018-02-08T00:38:22.620Z,101457.58
2018-02-08T00:40:50.242Z,101466.93
2018-02-08T00:43:17.961Z,101462.66
2018-02-08T00:45:45.590Z,101475.02
2018-02-08T00:48:13.177Z,101472.03
2018-02-08T00:50:40.758Z,101482.27
2018-02-08T00:53:08.348Z,101479.69
2018-02-08T00:55:35.934Z,101474.58
2018-02-08T00:58:03.590Z,101483.93
2018-02-08T01:00:31.983Z,101480.11
2018-02-08T01:02:59.548Z,101480.96
2018-02-08T01:05:27.130Z,101485.63
2018-02-08T01:07:54.718Z,101479.23
2018-02-08T01:10:22.418Z,101483.95
2018-02-08T01:12:50.003Z,101478.41
2018-02-08T01:15:17.637Z,101475.88
2018-02-08T01:17:46.127Z,101480.11
2018-02-08T01:20:14.311Z,101475.00
2018-02-08T01:22:41.894Z,101474.17
2018-02-08T01:25:09.482Z,101481.37
2018-02-08T01:27:37.070Z,101494.56
2018-02-08T01:30:04.675Z,101500.92
2018-02-08T01:32:33.770Z,101496.25
2018-02-08T01:35:01.438Z,101489.44
2018-02-08T01:37:29.030Z,101492.88
2018-02-08T01:39:56.609Z,101486.06
2018-02-08T01:42:25.098Z,101483.55
2018-02-08T01:44:52.775Z,101486.08
2018-02-08T01:47:20.400Z,101480.13
2018-02-08T01:49:49.258Z,101486.89
2018-02-08T01:52:17.650Z,101497.91
2018-02-08T01:54:46.127Z,101491.59
2018-02-08T01:57:13.851Z,101492.86
2018-02-08T01:59:42.318Z,101492.82
2018-02-08T02:02:09.906Z,101495.81
2018-02-08T02:04:37.491Z,101496.20
2018-02-08T02:07:05.170Z,101495.80
2018-02-08T02:09:32.818Z,101493.66
2018-02-08T02:12:00.402Z,101495.33
2018-02-08T02:14:27.998Z,101494.91
2018-02-08T02:16:55.590Z,101494.48
2018-02-08T02:19:23.178Z,101490.67
2018-02-08T02:21:50.767Z,101500.86
2018-02-08T02:24:18.358Z,101495.36
2018-02-08T02:26:46.016Z,101502.14
2018-02-08T02:29:14.498Z,101492.36
2018-02-08T02:31:42.089Z,101495.39
2018-02-08T02:34:09.814Z,101501.69
2018-02-08T02:36:37.406Z,101501.27
2018-02-08T02:39:05.026Z,101498.36
2018-02-08T02:41:32.658Z,101499.19
2018-02-08T02:44:00.308Z,101498.33
2018-02-08T02:46:27.903Z,101504.66
2018-02-08T02:48:55.491Z,101502.50
2018-02-08T02:51:23.123Z,101503.33
2018-02-08T02:53:50.719Z,101496.09
2018-02-08T02:56:18.312Z,101503.30
2018-02-08T02:58:45.900Z,101496.51
2018-02-08T03:01:13.535Z,101503.38
2018-02-08T03:03:41.126Z,101505.96
2018-02-08T03:06:08.713Z,101506.38
2018-02-08T03:08:36.306Z,101506.35
2018-02-08T03:11:03.899Z,101503.30
2018-02-08T03:13:31.482Z,101504.16
2018-02-08T03:15:59.072Z,101504.14
2018-02-08T03:18:26.667Z,101512.19
2018-02-08T03:20:54.259Z,101514.27
2018-02-08T03:23:21.850Z,101504.50
2018-02-08T03:25:49.439Z,101500.22
2018-02-08T03:28:17.050Z,101506.56
2018-02-08T03:30:48.135Z,101509.52
2018-02-08T03:33:15.728Z,101511.33
2018-02-08T03:35:43.316Z,101507.52
2018-02-08T03:38:10.907Z,101503.20
2018-02-08T03:40:38.535Z,101503.61
2018-02-08T03:43:06.132Z,101507.89
2018-02-08T03:45:33.725Z,101500.20
2018-02-08T03:48:01.315Z,101506.12
2018-02-08T03:50:28.905Z,101503.58
2018-02-08T03:52:56.490Z,101506.16
2018-02-08T03:55:24.080Z,101507.41
2018-02-08T03:57:51.714Z,101508.31
2018-02-08T04:00:19.306Z,101504.45
2018-02-08T04:02:46.901Z,101510.83
2018-02-08T04:05:14.487Z,101510.81
2018-02-08T04:07:42.075Z,101511.65
2018-02-08T04:10:09.663Z,101520.58
2018-02-08T04:12:37.252Z,101515.86
2018-02-08T04:15:04.839Z,101513.74
2018-02-08T04:17:32.463Z,101519.20
2018-02-08T04:20:00.064Z,101516.66
2018-02-08T04:22:27.655Z,101517.09
2018-02-08T04:24:55.259Z,101525.14
2018-02-08T04:27:22.856Z,101525.63
2018-02-08T04:29:50.448Z,101528.58
2018-02-08T04:32:18.087Z,101529.83
2018-02-08T04:34:45.675Z,101536.14
2018-02-08T04:37:13.316Z,101545.00
2018-02-08T04:39:52.569Z,101541.25
2018-02-08T04:45:32.897Z,101548.47
2018-02-08T04:48:08.400Z,101541.99
2018-02-08T04:50:35.997Z,101551.34
2018-02-08T04:53:03.588Z,101551.73
2018-02-08T04:55:31.214Z,101549.58
2018-02-08T04:57:58.801Z,101548.78
2018-02-08T05:00:26.559Z,101550.87
2018-02-08T05:02:54.147Z,101551.67
2018-02-08T05:05:21.773Z,101553.38
2018-02-08T05:07:49.365Z,101558.52
2018-02-08T05:10:17.014Z,101561.46
2018-02-08T05:12:44.666Z,101561.86
2018-02-08T05:15:12.254Z,101569.53
2018-02-08T05:17:39.843Z,101564.83
2018-02-08T05:20:07.495Z,101563.97
2018-02-08T05:22:35.101Z,101561.05
2018-02-08T05:25:02.707Z,101572.00
2018-02-08T05:27:30.299Z,101574.58
2018-02-08T05:29:58.033Z,101569.02
2018-02-08T05:32:25.627Z,101581.41
2018-02-08T05:34:53.250Z,101577.44
2018-02-08T05:37:20.845Z,101582.84
2018-02-08T05:39:48.854Z,101577.69
2018-02-08T05:42:16.446Z,101583.16
2018-02-08T05:44:44.070Z,101586.11
2018-02-08T05:47:11.700Z,101587.80
2018-02-08T05:49:39.282Z,101588.23
2018-02-08T05:52:06.903Z,101593.26
2018-02-08T05:54:34.491Z,101597.00
2018-02-08T05:57:02.193Z,101592.80
2018-02-08T05:59:29.783Z,101601.10
2018-02-08T06:01:57.458Z,101602.28
2018-02-08T06:04:25.081Z,101610.25
2018-02-08T06:06:52.664Z,101610.08
2018-02-08T06:09:20.291Z,101606.68
2018-02-08T06:11:47.918Z,101611.32
2018-02-08T06:14:15.506Z,101609.50
2018-02-08T06:16:43.186Z,101620.52
2018-02-08T06:19:10.772Z,101621.33
2018-02-08T06:21:38.403Z,101623.40
2018-02-08T06:24:05.996Z,101629.30
2018-02-08T06:26:33.591Z,101625.92
2018-02-08T06:29:01.186Z,101630.19
2018-02-08T06:31:28.783Z,101636.19
2018-02-08T06:33:56.407Z,101631.50
2018-02-08T06:36:24.007Z,101633.27
2018-02-08T06:38:51.631Z,101630.73
2018-02-08T06:41:19.305Z,101633.29
2018-02-08T06:43:46.962Z,101635.94
2018-02-08T06:46:14.626Z,101636.05
2018-02-08T06:48:42.291Z,101640.16
2018-02-08T06:51:09.910Z,101643.95
2018-02-08T06:53:37.535Z,101643.50
2018-02-08T06:56:05.127Z,101646.44
2018-02-08T06:58:32.989Z,101648.11
2018-02-08T07:01:00.579Z,101645.98
2018-02-08T07:03:28.214Z,101646.87
2018-02-08T07:05:55.810Z,101649.03
2018-02-08T07:08:23.500Z,101650.27
2018-02-08T07:10:51.154Z,101646.41
2018-02-08T07:13:18.750Z,101645.59
2018-02-08T07:15:47.047Z,101651.09
2018-02-08T07:18:14.635Z,101650.69
2018-02-08T07:20:42.236Z,101647.73
2018-02-08T07:23:09.827Z,101640.15
2018-02-08T07:25:37.590Z,101651.23
2018-02-08T07:28:05.241Z,101644.95
2018-02-08T07:30:32.871Z,101649.26
2018-02-08T07:33:00.474Z,101645.50
2018-02-08T07:35:28.208Z,101651.52
2018-02-08T07:37:55.832Z,101655.96
2018-02-08T07:40:23.419Z,101645.94
2018-02-08T07:42:51.018Z,101653.64
2018-02-08T07:45:18.603Z,101655.36
2018-02-08T07:47:46.188Z,101655.39
2018-02-08T07:50:13.795Z,101657.11
2018-02-08T07:52:41.472Z,101655.42
2018-02-08T07:55:09.136Z,101660.13
2018-02-08T07:57:36.722Z,101654.71
2018-02-08T08:00:04.315Z,101658.62
2018-02-08T08:02:31.975Z,101654.86
2018-02-08T08:04:59.571Z,101658.36
2018-02-08T08:07:27.163Z,101663.86
2018-02-08T08:09:54.759Z,101665.13
2018-02-08T08:12:22.351Z,101666.86
2018-02-08T08:14:49.988Z,101661.36
2018-02-08T08:17:17.590Z,101672.00
2018-02-08T08:19:45.212Z,101668.20
2018-02-08T08:22:12.844Z,101675.48
2018-02-08T08:24:40.436Z,101679.34
2018-02-08T08:27:08.095Z,101677.22
2018-02-08T08:29:35.688Z,101676.38
2018-02-08T08:32:03.283Z,101686.58
2018-02-08T08:34:30.985Z,101682.33
2018-02-08T08:36:58.572Z,101685.72
2018-02-08T08:39:26.167Z,101680.20
2018-02-08T08:41:53.760Z,101681.86
2018-02-08T08:44:21.358Z,101685.67
2018-02-08T08:46:48.954Z,101678.81
2018-02-08T08:49:16.546Z,101676.23
2018-02-08T08:51:44.212Z,101680.02
2018-02-08T08:54:11.802Z,101672.74
2018-02-08T08:56:39.394Z,101682.53
2018-02-08T08:59:07.144Z,101690.20
2018-02-08T09:01:34.774Z,101686.38
2018-02-08T09:04:02.406Z,101684.11
2018-02-08T09:06:30.007Z,101691.73
2018-02-08T09:08:57.637Z,101690.45
2018-02-08T09:11:25.869Z,101688.72
2018-02-08T09:13:53.455Z,101685.70
2018-02-08T09:16:21.047Z,101690.00
2018-02-08T09:18:48.711Z,101695.34
2018-02-08T09:21:16.420Z,101700.41
2018-02-08T09:23:44.015Z,101690.74
2018-02-08T09:26:11.696Z,101694.46
2018-02-08T09:28:39.292Z,101696.99
2018-02-08T09:31:06.956Z,101687.39
2018-02-08T09:33:34.616Z,101704.16
2018-02-08T09:36:02.923Z,101701.48
2018-02-08T09:38:30.555Z,101696.73
2018-02-08T09:40:58.183Z,101698.73
2018-02-08T09:43:25.854Z,101707.56
2018-02-08T09:45:53.479Z,101707.75
2018-02-08T09:48:21.103Z,101712.28
2018-02-08T09:50:48.740Z,101710.63
2018-02-08T09:53:16.349Z,101707.52
2018-02-08T09:55:44.097Z,101713.83
2018-02-08T09:58:11.682Z,101715.53
2018-02-08T10:00:39.276Z,101716.69
2018-02-08T10:03:06.908Z,101715.94
2018-02-08T10:05:34.607Z,101714.47
2018-02-08T10:08:02.301Z,101712.98
2018-02-08T10:10:29.931Z,101710.08
2018-02-08T10:12:57.523Z,101703.92
2018-02-08T10:15:25.151Z,101695.17
2018-02-08T10:17:52.822Z,101694.74
2018-02-08T10:20:20.451Z,101695.06
2018-02-08T10:22:48.075Z,101697.99
2018-02-08T10:25:15.738Z,101690.52
2018-02-08T10:27:43.336Z,101682.22
2018-02-08T10:30:11.038Z,101690.13
2018-02-08T10:32:38.623Z,101689.72
2018-02-08T10:35:06.259Z,101689.72
2018-02-08T10:37:33.835Z,101694.19
2018-02-08T10:40:01.427Z,101696.72
2018-02-08T10:42:29.014Z,101695.42
2018-02-08T10:44:56.635Z,101688.27
2018-02-08T10:47:24.218Z,101698.02
2018-02-08T10:49:51.806Z,101690.42
2018-02-08T10:52:19.538Z,101691.01
2018-02-08T10:54:47.108Z,101690.50
2018-02-08T10:57:14.707Z,101689.28
2018-02-08T10:59:42.320Z,101686.12
2018-02-08T11:02:09.929Z,101684.69
2018-02-08T11:04:37.513Z,101681.12
2018-02-08T11:07:05.091Z,101679.12
2018-02-08T11:09:32.718Z,101682.36
2018-02-08T11:12:00.302Z,101667.90
2018-02-08T11:14:27.888Z,101682.50
2018-02-08T11:16:55.467Z,101680.44
2018-02-08T11:19:23.054Z,101670.81
2018-02-08T11:21:50.723Z,101671.41
2018-02-08T11:24:18.303Z,101674.31
2018-02-08T11:26:45.946Z,101674.27
2018-02-08T11:29:13.573Z,101676.70
2018-02-08T11:31:41.159Z,101675.80
2018-02-08T11:34:08.784Z,101677.41
2018-02-08T11:36:36.390Z,101677.41
2018-02-08T11:39:03.984Z,101672.77
2018-02-08T11:41:31.624Z,101670.33
2018-02-08T11:43:59.214Z,101670.22
2018-02-08T11:46:26.839Z,101660.92
2018-02-08T11:48:54.418Z,101664.68
2018-02-08T11:51:22.048Z,101656.94
2018-02-08T11:53:49.728Z,101656.41
2018-02-08T11:56:17.400Z,101658.71
2018-02-08T11:58:44.983Z,101651.86
2018-02-08T12:01:12.619Z,101661.49
2018-02-08T12:03:40.193Z,101651.88
2018-02-08T12:06:07.771Z,101656.78
2018-02-08T12:08:35.387Z,101656.87
2018-02-08T12:11:02.976Z,101658.70
2018-02-08T12:13:30.599Z,101660.28
2018-02-08T12:15:58.187Z,101658.34
2018-02-08T12:18:25.768Z,101646.95
2018-02-08T12:20:53.346Z,101650.86
2018-02-08T12:23:20.927Z,101645.36
2018-02-08T12:25:48.511Z,101638.05
2018-02-08T12:28:16.884Z,101643.05
2018-02-08T12:30:44.463Z,101639.43
2018-02-08T12:33:12.132Z,101641.05
2018-02-08T12:35:39.791Z,101641.05
2018-02-08T12:38:07.455Z,101639.42
2018-02-08T12:40:35.075Z,101635.69
2018-02-08T12:43:02.656Z,101635.81
2018-02-08T12:45:30.236Z,101626.03
2018-02-08T12:47:57.828Z,101626.89
2018-02-08T12:50:25.496Z,101624.07
2018-02-08T12:52:53.082Z,101626.61
2018-02-08T12:55:20.659Z,101622.16
2018-02-08T12:57:48.240Z,101624.28
2018-02-08T13:00:15.859Z,101621.47
2018-02-08T13:02:43.508Z,101614.66
2018-02-08T13:05:11.130Z,101611.64
2018-02-08T13:07:38.743Z,101615.36
2018-02-08T13:10:06.371Z,101607.74
2018-02-08T13:12:33.947Z,101612.75
2018-02-08T13:15:01.528Z,101614.61
2018-02-08T13:17:29.138Z,101622.69
2018-02-08T13:19:56.749Z,101617.28
2018-02-08T13:22:24.335Z,101618.78
2018-02-08T13:24:51.915Z,101620.73
2018-02-08T13:27:19.578Z,101619.73
2018-02-08T13:29:47.150Z,101620.78
2018-02-08T13:32:17.287Z,101624.31
2018-02-08T13:34:44.878Z,101618.28
2018-02-08T13:37:12.486Z,101619.98
2018-02-08T13:39:41.037Z,101621.03
2018-02-08T13:42:10.531Z,101619.84
2018-02-08T13:44:38.123Z,101617.72
2018-02-08T13:50:15.162Z,101630.21
2018-02-08T13:55:48.398Z,101618.58
2018-02-08T13:58:21.587Z,101627.02
2018-02-08T14:00:49.492Z,101628.06
2018-02-08T14:03:17.148Z,101625.61
2018-02-08T14:05:44.731Z,101618.96
2018-02-08T14:08:12.379Z,101622.42
2018-02-08T14:10:39.994Z,101618.28
2018-02-08T14:13:07.677Z,101617.81
2018-02-08T14:15:35.288Z,101620.00
2018-02-08T14:18:02.875Z,101628.92
2018-02-08T14:20:30.487Z,101625.73
2018-02-08T14:22:58.066Z,101618.84
2018-02-08T14:25:25.682Z,101626.72
2018-02-08T14:27:53.299Z,101621.86
2018-02-08T14:30:20.966Z,101622.03
2018-02-08T14:32:48.627Z,101620.44
2018-02-08T14:35:16.288Z,101620.63
2018-02-08T14:37:43.912Z,101621.66
2018-02-08T14:40:11.548Z,101623.38
2018-02-08T14:42:39.211Z,101621.86
2018-02-08T14:45:06.825Z,101625.16
2018-02-08T14:47:34.557Z,101622.73
2018-02-08T14:50:02.135Z,101626.34
2018-02-08T14:52:29.755Z,101626.58
2018-02-08T14:54:57.332Z,101621.15
2018-02-08T14:57:24.951Z,101617.66
2018-02-08T14:59:52.586Z,101615.08
2018-02-08T15:02:20.280Z,101621.84
2018-02-08T15:04:47.939Z,101623.23
2018-02-08T15:07:15.554Z,101622.64
2018-02-08T15:09:43.167Z,101618.47
2018-02-08T15:12:10.827Z,101619.59
2018-02-08T15:14:38.459Z,101620.16
2018-02-08T15:17:06.078Z,101630.05
2018-02-08T15:19:33.712Z,101625.03
2018-02-08T15:22:01.292Z,101621.84
2018-02-08T15:24:29.150Z,101623.27
2018-02-08T15:26:56.855Z,101627.36
2018-02-08T15:29:24.435Z,101622.81
2018-02-08T15:31:52.011Z,101629.77
2018-02-08T15:34:19.594Z,101622.22
2018-02-08T15:36:47.282Z,101621.02
2018-02-08T15:39:14.910Z,101616.03
2018-02-08T15:41:42.489Z,101624.39
2018-02-08T15:44:10.130Z,101627.91
2018-02-08T15:46:37.728Z,101619.95
2018-02-08T15:49:05.359Z,101626.15
2018-02-08T15:51:33.023Z,101622.94
2018-02-08T15:54:00.635Z,101628.58
2018-02-08T15:56:28.283Z,101639.38
2018-02-08T15:58:55.872Z,101638.16
2018-02-08T16:01:23.579Z,101651.15
2018-02-08T16:03:51.182Z,101647.39
2018-02-08T16:06:18.771Z,101646.23
2018-02-08T16:08:46.364Z,101644.65
2018-02-08T16:11:13.983Z,101643.86
2018-02-08T16:13:41.571Z,101641.50
2018-02-08T16:16:09.162Z,101644.16
2018-02-08T16:18:36.751Z,101648.48
2018-02-08T16:21:04.339Z,101658.50
2018-02-08T16:23:31.931Z,101665.05
2018-02-08T16:25:59.550Z,101673.05
2018-02-08T16:28:27.136Z,101670.67
2018-02-08T16:30:54.736Z,101669.75
2018-02-08T16:33:22.366Z,101674.77
2018-02-08T16:35:49.958Z,101664.65
2018-02-08T16:38:17.645Z,101669.09
2018-02-08T16:40:45.274Z,101671.55
2018-02-08T16:43:12.919Z,101672.86
2018-02-08T16:45:40.552Z,101667.89
2018-02-08T16:48:08.140Z,101671.78
2018-02-08T16:50:35.726Z,101672.72
2018-02-08T16:53:03.320Z,101674.05
2018-02-08T16:55:31.034Z,101671.56
2018-02-08T16:57:58.628Z,101663.05
2018-02-08T17:00:26.214Z,101668.56
2018-02-08T17:02:53.803Z,101664.80
2018-02-08T17:05:21.528Z,101661.41
2018-02-08T17:07:49.179Z,101656.73
2018-02-08T17:10:16.771Z,101656.28
2018-02-08T17:12:44.366Z,101663.17
2018-02-08T17:15:11.960Z,101670.08
2018-02-08T17:17:39.595Z,101673.53
2018-02-08T17:20:07.182Z,101670.16
2018-02-08T17:22:34.773Z,101670.62
2018-02-08T17:25:02.364Z,101684.73
2018-02-08T17:27:29.956Z,101679.17
2018-02-08T17:29:57.637Z,101683.97
2018-02-08T17:32:25.222Z,101678.84
2018-02-08T17:34:52.843Z,101683.98
2018-02-08T17:37:20.429Z,101680.63
2018-02-08T17:39:48.018Z,101687.91
2018-02-08T17:42:15.599Z,101685.34
2018-02-08T17:44:43.232Z,101682.34
2018-02-08T17:47:10.832Z,101681.55
2018-02-08T17:49:38.426Z,101684.13
2018-02-08T17:52:06.008Z,101676.45
2018-02-08T17:54:33.595Z,101676.91
2018-02-08T17:57:01.183Z,101682.49
2018-02-08T17:59:28.777Z,101684.59
2018-02-08T18:01:56.382Z,101677.37
2018-02-08T18:04:23.971Z,101675.22
2018-02-08T18:06:51.564Z,101678.66
2018-02-08T18:09:19.151Z,101684.64
2018-02-08T18:11:46.734Z,101678.24
2018-02-08T18:14:14.378Z,101683.84
2018-02-08T18:16:42.990Z,101683.42
2018-02-08T18:19:10.623Z,101696.64
2018-02-08T18:21:38.210Z,101691.98
2018-02-08T18:24:05.803Z,101689.44
2018-02-08T18:26:33.399Z,101686.87
2018-02-08T18:29:01.039Z,101689.88
2018-02-08T18:31:28.672Z,101688.15
2018-02-08T18:33:56.330Z,101685.17
2018-02-08T18:36:23.922Z,101692.46
2018-02-08T18:38:51.511Z,101687.32
2018-02-08T18:41:19.108Z,101693.73
2018-02-08T18:43:46.714Z,101694.58
2018-02-08T18:46:14.303Z,101696.27
2018-02-08T18:48:42.795Z,101689.91
2018-02-08T18:51:10.390Z,101695.45
2018-02-08T18:53:38.020Z,101696.73
2018-02-08T18:56:05.651Z,101683.95
2018-02-08T18:58:33.288Z,101686.93
2018-02-08T19:01:00.879Z,101687.36
2018-02-08T19:03:28.512Z,101695.48
2018-02-08T19:05:56.106Z,101689.52
2018-02-08T19:08:23.807Z,101686.54
2018-02-08T19:10:51.390Z,101684.84
2018-02-08T19:13:18.984Z,101688.67
2018-02-08T19:15:46.678Z,101685.28
2018-02-08T19:18:14.267Z,101685.69
2018-02-08T19:20:41.858Z,101681.87
2018-02-08T19:23:09.531Z,101686.12
2018-02-08T19:25:37.119Z,101687.43
2018-02-08T19:28:04.707Z,101687.42
2018-02-08T19:30:32.419Z,101691.68
2018-02-08T19:33:00.011Z,101692.53
2018-02-08T19:35:27.599Z,101696.83
2018-02-08T19:37:57.709Z,101691.28
2018-02-08T19:40:25.439Z,101684.86
2018-02-08T19:42:53.086Z,101687.85
2018-02-08T19:45:20.728Z,101684.02
2018-02-08T19:47:49.078Z,101685.30
2018-02-08T19:50:19.361Z,101689.15
2018-02-08T19:52:47.472Z,101700.20
2018-02-08T19:55:16.117Z,101690.84
2018-02-08T19:57:44.677Z,101691.71
2018-02-08T20:00:13.128Z,101697.23
2018-02-08T20:02:42.182Z,101698.52
2018-02-08T20:05:10.753Z,101695.53
2018-02-08T20:07:38.531Z,101689.56
2018-02-08T20:10:06.340Z,101697.66
2018-02-08T20:12:34.059Z,101690.84
2018-02-08T20:15:01.770Z,101689.98
2018-02-08T20:17:29.604Z,101698.95
2018-02-08T20:19:57.430Z,101697.67
2018-02-08T20:22:25.064Z,101700.63
2018-02-08T20:24:52.787Z,101707.02
2018-02-08T20:27:20.411Z,101706.17
2018-02-08T20:29:48.133Z,101708.30
2018-02-08T20:32:16.229Z,101708.29
2018-02-08T20:34:43.982Z,101706.61
2018-02-08T20:37:11.567Z,101703.17
2018-02-08T20:39:39.175Z,101711.28
2018-02-08T20:42:06.762Z,101703.59
2018-02-08T20:44:34.413Z,101701.91
2018-02-08T20:47:02.027Z,101703.63
2018-02-08T20:49:29.872Z,101707.45
2018-02-08T20:51:57.641Z,101701.46
2018-02-08T20:54:25.588Z,101709.98
2018-02-08T20:56:53.221Z,101705.28
2018-02-08T20:59:20.850Z,101705.27
2018-02-08T21:01:48.514Z,101705.23
2018-02-08T21:04:16.183Z,101706.09
2018-02-08T21:06:43.773Z,101704.83
2018-02-08T21:09:11.435Z,101697.16
2018-02-08T21:11:39.137Z,101696.27
2018-02-08T21:14:06.922Z,101696.28
2018-02-08T21:16:34.598Z,101693.72
2018-02-08T21:19:02.191Z,101699.23
2018-02-08T21:21:29.818Z,101697.14
2018-02-08T21:23:57.487Z,101689.04
2018-02-08T21:26:25.274Z,101692.84
2018-02-08T21:28:52.915Z,101693.69
2018-02-08T21:31:20.502Z,101696.66
2018-02-08T21:33:48.105Z,101700.47
2018-02-08T21:36:15.696Z,101700.45
2018-02-08T21:38:43.392Z,101697.46
2018-02-08T21:41:11.059Z,101686.81
2018-02-08T21:43:38.682Z,101694.89
2018-02-08T21:46:06.436Z,101682.55
2018-02-08T21:48:34.074Z,101675.72
2018-02-08T21:51:01.660Z,101687.17
2018-02-08T21:53:29.368Z,101674.84
2018-02-08T21:55:56.951Z,101685.91
2018-02-08T21:58:24.558Z,101682.89
2018-02-08T22:00:52.142Z,101684.16
2018-02-08T22:03:19.815Z,101682.49
2018-02-08T22:05:47.398Z,101681.68
2018-02-08T22:08:15.018Z,101686.79
2018-02-08T22:10:42.700Z,101682.12
2018-02-08T22:13:10.295Z,101685.94
2018-02-08T22:15:37.882Z,101683.35
2018-02-08T22:18:05.487Z,101680.82
2018-02-08T22:20:33.075Z,101678.23
2018-02-08T22:23:00.714Z,101685.05
2018-02-08T22:25:28.306Z,101688.07
2018-02-08T22:27:55.895Z,101677.76
2018-02-08T22:30:23.600Z,101680.31
2018-02-08T22:32:51.743Z,101682.81
2018-02-08T22:35:19.332Z,101683.25
2018-02-08T22:37:46.914Z,101689.59
2018-02-08T22:40:14.503Z,101682.39
2018-02-08T22:42:42.123Z,101682.50
2018-02-08T22:45:09.774Z,101685.45
2018-02-08T22:47:37.388Z,101682.84
2018-02-08T22:50:05.052Z,101685.75
2018-02-08T22:52:32.639Z,101688.67
2018-02-08T22:55:00.224Z,101689.92
2018-02-08T22:57:27.891Z,101686.98
2018-02-08T22:59:55.482Z,101685.69
2018-02-08T23:02:23.067Z,101681.05
2018-02-08T23:04:50.668Z,101678.85
2018-02-08T23:07:18.335Z,101685.64
2018-02-08T23:09:45.919Z,101686.05
2018-02-08T23:12:13.508Z,101686.85
2018-02-08T23:14:41.103Z,101683.95
2018-02-08T23:17:08.692Z,101679.66
2018-02-08T23:19:36.381Z,101685.15
2018-02-08T23:22:04.007Z,101680.47
2018-02-08T23:24:31.592Z,101677.50
2018-02-08T23:26:59.178Z,101671.91
2018-02-08T23:29:26.761Z,101672.30
2018-02-08T23:31:54.355Z,101672.31
2018-02-08T23:34:21.975Z,101668.92
2018-02-08T23:36:49.560Z,101665.08
2018-02-08T23:39:17.236Z,101673.97
2018-02-08T23:41:44.950Z,101672.28
2018-02-08T23:44:12.536Z,101674.84
2018-02-08T23:46:40.120Z,101670.22
2018-02-08T23:49:07.706Z,101666.80
2018-02-08T23:51:35.292Z,101664.27
2018-02-08T23:54:02.879Z,101662.16
2018-02-08T23:56:30.500Z,101670.22
2018-02-08T23:58:58.091Z,101669.00
